createdAt,value
2022-08-03T00:00:39.974Z,57.45
2022-08-03T00:03:08.205Z,57.78
2022-08-03T00:05:36.404Z,57.41
2022-08-03T00:08:04.729Z,56.69
2022-08-03T00:10:35.107Z,57.53
2022-08-03T00:13:04.736Z,58.08
2022-08-03T00:15:33.097Z,58.03
2022-08-03T00:18:03.212Z,58.91
2022-08-03T00:20:31.426Z,58.26
2022-08-03T00:22:59.437Z,58.72
2022-08-03T00:25:27.791Z,58.84
2022-08-03T00:27:56.179Z,59.18
2022-08-03T00:30:26.891Z,58.74
2022-08-03T00:32:59.605Z,59.78
2022-08-03T00:35:36.610Z,59.81
2022-08-03T00:38:11.392Z,60.00
2022-08-03T00:40:39.633Z,60.27
2022-08-03T00:43:09.131Z,59.81
2022-08-03T00:45:40.352Z,59.99
2022-08-03T00:48:19.512Z,60.18
2022-08-03T00:51:00.339Z,60.48
2022-08-03T00:53:29.221Z,61.08
2022-08-03T00:55:59.760Z,62.03
2022-08-03T00:58:28.083Z,61.79
2022-08-03T01:00:57.787Z,61.41
2022-08-03T01:03:26.064Z,61.80
2022-08-03T01:05:57.789Z,61.76
2022-08-03T01:08:32.150Z,61.32
2022-08-03T01:11:08.310Z,61.64
2022-08-03T01:22:12.607Z,62.79
2022-08-03T01:24:50.255Z,62.24
2022-08-03T01:27:20.703Z,62.09
2022-08-03T01:30:05.614Z,62.74
2022-08-03T01:32:59.977Z,62.79
2022-08-03T01:35:35.451Z,62.26
2022-08-03T01:38:12.001Z,63.37
2022-08-03T01:40:41.773Z,63.23
2022-08-03T01:43:12.439Z,63.23
2022-08-03T01:45:45.006Z,62.36
2022-08-03T01:48:14.282Z,63.46
2022-08-03T01:50:43.877Z,62.87
2022-08-03T01:53:14.654Z,62.67
2022-08-03T01:55:43.356Z,64.25
2022-08-03T01:58:11.721Z,63.90
2022-08-03T02:00:45.868Z,63.54
2022-08-03T02:03:14.937Z,64.19
2022-08-03T02:05:44.990Z,63.64
2022-08-03T02:08:15.155Z,63.38
2022-08-03T02:10:45.019Z,63.17
2022-08-03T02:13:14.183Z,63.52
2022-08-03T02:15:42.853Z,62.95
2022-08-03T02:18:13.144Z,62.49
2022-08-03T02:20:42.759Z,62.79
2022-08-03T02:23:11.102Z,63.18
2022-08-03T02:25:43.434Z,63.75
2022-08-03T02:28:13.577Z,64.04
2022-08-03T02:30:44.093Z,64.04
2022-08-03T02:33:20.519Z,64.32
2022-08-03T02:35:50.536Z,63.35
2022-08-03T02:38:21.788Z,63.47
2022-08-03T02:40:51.322Z,63.50
2022-08-03T02:43:21.815Z,62.96
2022-08-03T02:45:51.664Z,63.08
2022-08-03T02:48:23.815Z,63.78
2022-08-03T02:50:54.667Z,63.53
2022-08-03T02:53:22.998Z,63.50
2022-08-03T02:55:51.675Z,63.00
2022-08-03T02:58:21.813Z,62.50
2022-08-03T03:00:51.858Z,62.95
2022-08-03T03:03:22.262Z,62.57
2022-08-03T03:05:54.740Z,63.31
2022-08-03T03:08:28.722Z,63.26
2022-08-03T03:10:58.674Z,63.49
2022-08-03T03:13:28.677Z,63.49
2022-08-03T03:15:58.536Z,64.24
2022-08-03T03:18:29.127Z,63.43
2022-08-03T03:21:00.473Z,64.11
2022-08-03T03:23:29.701Z,64.22
2022-08-03T03:25:59.030Z,63.99
2022-08-03T03:28:27.451Z,64.11
2022-08-03T03:30:57.090Z,63.94
2022-08-03T03:33:27.199Z,64.51
2022-08-03T03:35:59.058Z,63.99
2022-08-03T03:38:27.472Z,64.71
2022-08-03T03:40:56.263Z,64.68
2022-08-03T03:43:25.194Z,64.62
2022-08-03T03:45:54.153Z,63.91
2022-08-03T03:48:22.377Z,63.93
2022-08-03T03:50:53.334Z,63.39
2022-08-03T03:53:22.880Z,62.83
2022-08-03T03:55:59.389Z,62.86
2022-08-03T03:58:33.742Z,63.31
2022-08-03T04:01:02.206Z,63.24
2022-08-03T04:03:30.587Z,63.64
2022-08-03T04:06:17.408Z,63.12
2022-08-03T04:09:04.566Z,63.50
2022-08-03T04:11:37.994Z,64.02
2022-08-03T04:14:09.674Z,63.38
2022-08-03T04:16:43.646Z,63.59
2022-08-03T04:19:13.925Z,63.33
2022-08-03T04:21:43.488Z,63.89
2022-08-03T04:24:15.218Z,64.14
2022-08-03T04:26:46.651Z,63.66
2022-08-03T04:29:17.594Z,64.05
2022-08-03T04:31:47.191Z,63.70
2022-08-03T04:34:15.467Z,63.12
2022-08-03T04:36:47.112Z,62.31
2022-08-03T04:39:21.596Z,63.00
2022-08-03T04:42:04.704Z,62.87
2022-08-03T04:44:39.285Z,63.23
2022-08-03T04:47:07.628Z,63.28
2022-08-03T04:49:37.667Z,62.93
2022-08-03T04:52:06.933Z,63.00
2022-08-03T04:54:42.904Z,63.17
2022-08-03T04:57:22.673Z,63.04
2022-08-03T05:00:01.436Z,62.08
2022-08-03T05:02:32.278Z,61.94
2022-08-03T05:05:00.840Z,62.23
2022-08-03T05:07:36.399Z,61.52
2022-08-03T05:10:16.121Z,60.90
2022-08-03T05:12:45.691Z,61.44
2022-08-03T05:15:14.294Z,62.02
2022-08-03T05:17:42.953Z,61.33
2022-08-03T05:20:12.225Z,60.18
2022-08-03T05:22:40.512Z,60.20
2022-08-03T05:25:19.827Z,60.71
2022-08-03T05:27:50.054Z,60.46
2022-08-03T05:30:31.049Z,60.09
2022-08-03T05:33:03.846Z,60.36
2022-08-03T05:36:02.769Z,59.09
2022-08-03T05:38:28.067Z,59.31
2022-08-03T05:41:21.290Z,58.79
2022-08-03T05:43:46.511Z,59.29
2022-08-03T05:46:14.737Z,58.87
2022-08-03T05:48:43.506Z,59.01
2022-08-03T05:51:12.551Z,58.83
2022-08-03T05:53:41.218Z,58.07
2022-08-03T05:56:14.666Z,57.25
2022-08-03T05:58:47.005Z,56.72
2022-08-03T06:01:18.040Z,57.04
2022-08-03T06:03:46.366Z,57.04
2022-08-03T06:06:14.894Z,56.63
2022-08-03T06:08:43.265Z,56.80
2022-08-03T06:11:14.802Z,56.87
2022-08-03T06:13:43.554Z,57.18
2022-08-03T06:16:11.995Z,57.05
2022-08-03T06:18:41.345Z,57.01
2022-08-03T06:21:15.475Z,55.98
2022-08-03T06:23:54.642Z,56.34
2022-08-03T06:26:29.227Z,56.29
2022-08-03T06:28:59.558Z,56.30
2022-08-03T06:31:40.896Z,56.42
2022-08-03T06:34:32.238Z,55.57
2022-08-03T06:37:09.536Z,55.71
2022-08-03T06:39:45.100Z,55.45
2022-08-03T06:42:25.036Z,55.20
2022-08-03T06:45:06.400Z,55.18
2022-08-03T06:48:02.592Z,54.65
2022-08-03T06:50:39.813Z,54.68
2022-08-03T06:53:11.354Z,54.50
2022-08-03T06:55:54.393Z,54.69
2022-08-03T06:58:24.931Z,54.94
2022-08-03T07:00:58.839Z,54.54
2022-08-03T07:03:28.839Z,54.79
2022-08-03T07:05:57.190Z,54.52
2022-08-03T07:08:33.552Z,54.76
2022-08-03T07:11:02.973Z,54.82
2022-08-03T07:13:34.098Z,55.06
2022-08-03T07:16:02.372Z,54.53
2022-08-03T07:18:31.157Z,54.25
2022-08-03T07:20:59.751Z,54.04
2022-08-03T07:23:27.870Z,53.86
2022-08-03T07:25:56.217Z,53.13
2022-08-03T07:28:24.575Z,53.19
2022-08-03T07:30:54.428Z,52.67
2022-08-03T07:33:22.602Z,52.28
2022-08-03T07:35:51.270Z,51.74
2022-08-03T07:38:21.123Z,51.29
2022-08-03T07:40:49.527Z,50.79
2022-08-03T07:43:17.851Z,50.29
2022-08-03T07:45:46.008Z,48.73
2022-08-03T07:48:17.495Z,47.25
2022-08-03T07:50:46.263Z,46.66
2022-08-03T07:53:16.720Z,46.37
2022-08-03T07:55:45.012Z,46.37
2022-08-03T07:58:19.183Z,46.40
2022-08-03T08:00:51.094Z,46.13
2022-08-03T08:03:21.990Z,45.72
2022-08-03T08:05:50.653Z,45.50
2022-08-03T08:08:18.812Z,45.27
2022-08-03T08:10:58.460Z,45.21
2022-08-03T08:13:27.142Z,45.33
2022-08-03T08:15:55.398Z,44.50
2022-08-03T08:18:25.471Z,44.38
2022-08-03T08:20:56.608Z,44.16
2022-08-03T08:23:44.187Z,43.92
2022-08-03T08:26:18.774Z,43.60
2022-08-03T08:28:46.995Z,43.10
2022-08-03T08:31:15.517Z,42.88
2022-08-03T08:34:03.767Z,42.97
2022-08-03T08:36:33.754Z,42.54
2022-08-03T08:39:04.669Z,41.84
2022-08-03T08:41:34.925Z,41.99
2022-08-03T08:44:03.254Z,41.68
2022-08-03T08:46:33.965Z,41.26
2022-08-03T08:49:03.795Z,41.18
2022-08-03T08:51:59.318Z,41.52
2022-08-03T08:54:26.923Z,41.35
2022-08-03T08:56:57.586Z,40.27
2022-08-03T08:59:26.545Z,40.33
2022-08-03T09:02:15.063Z,39.85
2022-08-03T09:04:45.807Z,39.91
2022-08-03T09:07:20.703Z,39.48
2022-08-03T09:10:05.321Z,39.10
2022-08-03T09:12:42.731Z,38.55
2022-08-03T09:15:21.517Z,38.12
2022-08-03T09:17:51.297Z,38.25
2022-08-03T09:20:22.102Z,38.45
2022-08-03T09:22:55.126Z,38.95
2022-08-03T09:25:31.822Z,38.76
2022-08-03T09:28:10.898Z,38.98
2022-08-03T09:30:40.614Z,38.50
2022-08-03T09:33:13.957Z,38.47
2022-08-03T09:35:59.956Z,38.34
2022-08-03T09:38:28.258Z,37.81
2022-08-03T09:41:00.677Z,36.96
2022-08-03T09:43:29.659Z,36.54
2022-08-03T09:46:04.297Z,36.40
2022-08-03T09:48:35.074Z,36.07
2022-08-03T09:51:14.354Z,35.38
2022-08-03T09:53:59.204Z,35.36
2022-08-03T09:56:40.143Z,35.19
2022-08-03T09:59:08.431Z,35.33
2022-08-03T10:01:39.668Z,35.52
2022-08-03T10:04:08.163Z,35.51
2022-08-03T10:06:37.743Z,35.02
2022-08-03T10:09:08.359Z,33.66
2022-08-03T10:11:41.721Z,33.21
2022-08-03T10:14:19.163Z,33.61
2022-08-03T10:16:49.135Z,32.46
2022-08-03T10:19:18.339Z,29.94
2022-08-03T10:21:54.480Z,29.00
2022-08-03T10:24:28.575Z,27.93
2022-08-03T10:27:03.520Z,28.57
2022-08-03T10:29:34.998Z,29.23
2022-08-03T10:32:06.567Z,29.96
2022-08-03T10:34:38.384Z,30.35
2022-08-03T10:37:15.018Z,30.39
2022-08-03T10:39:53.601Z,29.42
2022-08-03T10:42:27.306Z,29.26
2022-08-03T10:45:03.053Z,29.12
2022-08-03T10:47:31.828Z,29.57
2022-08-03T10:50:00.861Z,29.67
2022-08-03T10:52:33.905Z,29.66
2022-08-03T10:55:39.361Z,28.22
2022-08-03T10:58:11.268Z,27.80
2022-08-03T11:00:53.000Z,26.66
2022-08-03T11:03:21.357Z,26.43
2022-08-03T11:05:52.367Z,26.14
2022-08-03T11:08:39.968Z,26.28
2022-08-03T11:11:28.605Z,26.24
2022-08-03T11:14:05.016Z,26.31
2022-08-03T11:16:36.365Z,27.22
2022-08-03T11:19:07.832Z,27.79
2022-08-03T11:21:59.113Z,27.59
2022-08-03T11:25:00.213Z,27.60
2022-08-03T11:27:30.576Z,27.64
2022-08-03T11:30:05.003Z,27.62
2022-08-03T11:32:56.625Z,27.21
2022-08-03T11:35:26.853Z,27.71
2022-08-03T11:38:12.684Z,28.21
2022-08-03T11:40:45.185Z,28.29
2022-08-03T11:43:46.507Z,28.01
2022-08-03T11:46:28.374Z,27.55
2022-08-03T11:49:10.224Z,27.08
2022-08-03T11:51:41.272Z,26.51
2022-08-03T11:54:09.719Z,26.53
2022-08-03T11:56:51.899Z,26.50
2022-08-03T11:59:22.330Z,26.26
2022-08-03T12:01:51.685Z,25.80
2022-08-03T12:04:22.685Z,25.64
2022-08-03T12:07:00.970Z,25.46
2022-08-03T12:09:29.508Z,25.31
2022-08-03T12:12:00.288Z,24.80
2022-08-03T12:14:48.492Z,24.79
2022-08-03T12:17:19.477Z,24.36
2022-08-03T12:19:48.011Z,23.81
2022-08-03T12:22:17.256Z,23.25
2022-08-03T12:24:47.633Z,23.86
2022-08-03T12:27:26.595Z,24.07
2022-08-03T12:29:58.552Z,23.90
2022-08-03T12:32:27.802Z,23.79
2022-08-03T12:35:00.257Z,23.86
2022-08-03T12:37:32.034Z,23.24
2022-08-03T12:40:09.383Z,22.69
2022-08-03T12:42:40.848Z,22.56
2022-08-03T12:45:23.059Z,22.66
2022-08-03T12:47:55.797Z,22.75
2022-08-03T12:50:28.846Z,21.94
2022-08-03T12:52:57.805Z,22.05
2022-08-03T12:55:57.284Z,22.17
2022-08-03T12:58:34.553Z,21.48
2022-08-03T13:01:09.457Z,21.71
2022-08-03T13:03:43.587Z,21.95
2022-08-03T13:06:17.626Z,21.32
2022-08-03T13:08:47.984Z,20.58
2022-08-03T13:11:53.513Z,21.01
2022-08-03T13:14:19.574Z,21.07
2022-08-03T13:16:49.230Z,20.86
2022-08-03T13:19:17.789Z,21.78
2022-08-03T13:21:53.578Z,21.39
2022-08-03T13:24:33.585Z,21.12
2022-08-03T13:28:02.118Z,21.66
2022-08-03T13:29:55.176Z,21.28
2022-08-03T13:32:23.970Z,20.55
2022-08-03T13:34:55.412Z,20.58
2022-08-03T13:37:24.054Z,19.93
2022-08-03T13:39:59.246Z,19.48
2022-08-03T13:42:30.614Z,19.12
2022-08-03T13:45:00.676Z,19.13
2022-08-03T13:47:29.401Z,19.15
2022-08-03T13:50:01.279Z,19.21
2022-08-03T13:52:32.523Z,18.98
2022-08-03T13:55:01.076Z,19.17
2022-08-03T13:58:05.099Z,18.74
2022-08-03T14:00:27.725Z,18.68
2022-08-03T14:03:16.478Z,18.27
2022-08-03T14:05:45.479Z,18.02
2022-08-03T14:08:13.940Z,18.39
2022-08-03T14:10:44.034Z,18.55
2022-08-03T14:13:16.856Z,18.22
2022-08-03T14:15:50.271Z,18.43
2022-08-03T14:18:28.248Z,18.28
2022-08-03T14:21:05.448Z,18.08
2022-08-03T14:23:36.492Z,18.60
2022-08-03T14:26:05.064Z,18.08
2022-08-03T14:28:33.139Z,17.87
2022-08-03T14:31:03.407Z,18.16
2022-08-03T14:33:31.688Z,17.80
2022-08-03T14:36:00.171Z,18.09
2022-08-03T14:38:28.543Z,17.92
2022-08-03T14:40:57.073Z,17.99
2022-08-03T14:43:25.388Z,17.86
2022-08-03T14:46:04.582Z,17.85
2022-08-03T14:50:34.121Z,18.07
2022-08-03T14:51:21.120Z,18.40
2022-08-03T14:53:49.352Z,18.41
2022-08-03T14:56:17.571Z,18.31
2022-08-03T14:58:48.560Z,18.18
2022-08-03T15:02:02.604Z,17.97
2022-08-03T15:04:06.462Z,18.25
2022-08-03T15:06:35.004Z,17.86
2022-08-03T15:09:22.606Z,17.79
2022-08-03T15:11:51.679Z,17.77
2022-08-03T15:14:22.386Z,17.98
2022-08-03T15:17:02.133Z,17.76
2022-08-03T15:20:03.140Z,17.28
2022-08-03T15:22:25.012Z,17.66
2022-08-03T15:24:56.304Z,17.44
2022-08-03T15:27:24.688Z,17.83
2022-08-03T15:30:07.058Z,17.44
2022-08-03T15:32:42.256Z,17.72
2022-08-03T15:35:10.716Z,17.82
2022-08-03T15:37:38.949Z,17.94
2022-08-03T15:40:07.918Z,17.88
2022-08-03T15:42:36.263Z,17.23
2022-08-03T15:45:05.313Z,17.20
2022-08-03T15:47:33.581Z,16.93
2022-08-03T15:50:07.809Z,16.88
2022-08-03T15:52:39.784Z,16.67
2022-08-03T15:55:09.341Z,16.36
2022-08-03T15:59:10.429Z,17.27
2022-08-03T16:00:35.279Z,17.26
2022-08-03T16:03:03.581Z,17.17
2022-08-03T16:05:33.172Z,16.87
2022-08-03T16:08:04.350Z,16.15
2022-08-03T16:10:34.043Z,16.63
2022-08-03T16:13:02.425Z,17.22
2022-08-03T16:15:30.754Z,17.49
2022-08-03T16:17:59.110Z,17.67
2022-08-03T16:20:31.171Z,17.39
2022-08-03T16:23:10.503Z,17.90
2022-08-03T16:25:39.935Z,17.72
2022-08-03T16:28:13.481Z,18.01
2022-08-03T16:30:43.958Z,18.02
2022-08-03T16:33:16.729Z,17.95
2022-08-03T16:35:45.532Z,18.67
2022-08-03T16:38:18.830Z,18.84
2022-08-03T16:40:51.774Z,18.44
2022-08-03T16:43:24.816Z,18.56
2022-08-03T16:45:54.480Z,18.94
2022-08-03T16:48:22.796Z,19.24
2022-08-03T16:50:51.099Z,18.78
2022-08-03T16:53:33.241Z,19.28
2022-08-03T16:56:10.840Z,19.03
2022-08-03T16:58:42.366Z,19.06
2022-08-03T17:01:22.413Z,19.49
2022-08-03T17:04:01.646Z,19.63
2022-08-03T17:06:34.768Z,19.67
2022-08-03T17:09:08.671Z,19.85
2022-08-03T17:11:43.946Z,19.84
2022-08-03T17:14:16.365Z,20.64
2022-08-03T17:16:52.069Z,20.50
2022-08-03T17:19:23.743Z,21.08
2022-08-03T17:21:58.970Z,20.90
2022-08-03T17:24:35.126Z,21.45
2022-08-03T17:27:08.554Z,21.74
2022-08-03T17:29:45.182Z,21.89
2022-08-03T17:32:21.448Z,21.93
2022-08-03T17:34:51.371Z,22.80
2022-08-03T17:37:49.841Z,23.10
2022-08-03T17:40:17.943Z,23.56
2022-08-03T17:42:50.793Z,24.61
2022-08-03T17:45:21.228Z,24.65
2022-08-03T17:47:57.768Z,24.62
2022-08-03T17:50:37.638Z,24.88
2022-08-03T17:53:24.463Z,25.29
2022-08-03T17:56:38.796Z,26.51
2022-08-03T17:59:00.540Z,26.92
2022-08-03T18:02:06.508Z,26.84
2022-08-03T18:04:44.305Z,26.98
2022-08-03T18:07:24.311Z,27.16
2022-08-03T18:10:11.308Z,27.18
2022-08-03T18:12:51.837Z,28.01
2022-08-03T18:15:25.395Z,27.83
2022-08-03T18:18:02.252Z,27.93
2022-08-03T18:20:40.885Z,28.33
2022-08-03T18:23:11.422Z,28.20
2022-08-03T18:25:58.229Z,28.43
2022-08-03T18:28:29.663Z,28.80
2022-08-03T18:30:58.719Z,28.87
2022-08-03T18:34:17.627Z,28.97
2022-08-03T18:36:22.044Z,28.99
2022-08-03T18:39:00.441Z,29.11
2022-08-03T18:41:34.024Z,29.78
2022-08-03T18:47:15.759Z,29.57
2022-08-03T18:50:02.616Z,29.64
2022-08-03T18:52:37.294Z,29.88
2022-08-03T18:55:20.575Z,29.88
2022-08-03T18:57:57.002Z,29.95
2022-08-03T19:00:34.204Z,30.36
2022-08-03T19:03:24.857Z,30.35
2022-08-03T19:06:15.911Z,30.63
2022-08-03T19:08:51.466Z,30.66
2022-08-03T19:11:28.121Z,30.59
2022-08-03T19:13:59.531Z,31.01
2022-08-03T19:16:38.820Z,30.94
2022-08-03T19:19:11.038Z,31.12
2022-08-03T19:21:43.395Z,31.58
2022-08-03T19:24:14.500Z,31.19
2022-08-03T19:26:48.648Z,31.55
2022-08-03T19:29:24.360Z,32.32
2022-08-03T19:32:19.470Z,32.14
2022-08-03T19:34:49.521Z,32.28
2022-08-03T19:37:18.018Z,32.55
2022-08-03T19:39:56.325Z,32.89
2022-08-03T19:42:31.188Z,32.86
2022-08-03T19:45:11.424Z,32.64
2022-08-03T19:47:47.544Z,33.33
2022-08-03T19:50:17.903Z,33.11
2022-08-03T19:52:48.751Z,33.24
2022-08-03T19:55:18.520Z,33.29
2022-08-03T19:57:49.609Z,33.35
2022-08-03T20:00:26.647Z,33.54
2022-08-03T20:03:22.016Z,33.42
2022-08-03T20:05:54.212Z,33.27
2022-08-03T20:08:23.805Z,34.06
2022-08-03T20:10:52.301Z,33.33
2022-08-03T20:13:21.663Z,33.91
2022-08-03T20:15:57.047Z,33.16
2022-08-03T20:18:27.226Z,33.53
2022-08-03T20:20:56.101Z,33.82
2022-08-03T20:23:26.217Z,33.66
2022-08-03T20:26:06.239Z,34.05
2022-08-03T20:28:50.078Z,34.16
2022-08-03T20:31:23.799Z,34.50
2022-08-03T20:34:00.536Z,34.80
2022-08-03T20:36:28.972Z,34.29
2022-08-03T20:38:59.970Z,33.91
2022-08-03T20:41:28.558Z,34.16
2022-08-03T20:44:01.030Z,34.38
2022-08-03T20:49:23.434Z,35.23
2022-08-03T20:51:53.598Z,35.68
2022-08-03T20:54:29.594Z,36.59
2022-08-03T20:57:04.400Z,36.53
2022-08-03T20:59:47.004Z,36.59
2022-08-03T21:02:30.322Z,36.77
2022-08-03T21:08:06.346Z,36.83
2022-08-03T21:10:43.068Z,37.29
2022-08-03T21:12:59.027Z,29.26
2022-08-03T21:13:12.190Z,36.68
2022-08-03T21:13:13.183Z,34.54
2022-08-03T21:13:18.836Z,37.32
2022-08-03T21:16:03.334Z,37.90
2022-08-03T21:18:44.914Z,38.02
2022-08-03T21:21:17.021Z,38.05
2022-08-03T21:23:49.117Z,38.36
2022-08-03T21:26:18.889Z,38.53
2022-08-03T21:28:48.024Z,38.98
2022-08-03T21:31:25.328Z,39.10
2022-08-03T21:33:56.634Z,39.20
2022-08-03T21:36:30.492Z,39.19
2022-08-03T21:38:59.266Z,39.33
2022-08-03T21:41:29.930Z,39.71
2022-08-03T21:43:58.410Z,40.26
2022-08-03T21:46:28.184Z,40.50
2022-08-03T21:50:05.805Z,40.85
2022-08-03T21:51:52.732Z,40.46
2022-08-03T21:54:22.440Z,40.77
2022-08-03T21:56:52.774Z,40.95
2022-08-03T21:59:21.920Z,40.91
2022-08-03T22:01:51.438Z,41.27
2022-08-03T22:04:50.662Z,41.11
2022-08-03T22:07:14.006Z,41.57
2022-08-03T22:09:51.014Z,41.42
2022-08-03T22:12:23.851Z,41.87
2022-08-03T22:15:01.290Z,41.90
2022-08-03T22:17:55.596Z,41.83
2022-08-03T22:20:22.418Z,41.99
2022-08-03T22:22:56.592Z,41.96
2022-08-03T22:25:30.043Z,42.85
2022-08-03T22:28:00.130Z,42.68
2022-08-03T22:30:29.929Z,43.06
2022-08-03T22:32:59.694Z,43.06
2022-08-03T22:35:28.550Z,43.44
2022-08-03T22:37:59.555Z,43.11
2022-08-03T22:40:30.630Z,44.03
2022-08-03T22:43:01.500Z,44.20
2022-08-03T22:46:08.486Z,44.57
2022-08-03T22:48:19.762Z,44.63
2022-08-03T22:50:48.280Z,44.64
2022-08-03T22:53:21.872Z,45.02
2022-08-03T22:55:51.270Z,44.43
2022-08-03T22:58:21.013Z,44.85
2022-08-03T23:01:09.347Z,44.80
2022-08-03T23:03:59.689Z,44.41
2022-08-03T23:06:34.314Z,45.34
2022-08-03T23:09:08.800Z,45.70
2022-08-03T23:11:45.737Z,45.94
2022-08-03T23:14:16.171Z,45.94
2022-08-03T23:16:45.842Z,45.61
2022-08-03T23:19:17.381Z,45.95
2022-08-03T23:22:02.713Z,46.50
2022-08-03T23:24:35.023Z,46.17
2022-08-03T23:27:04.216Z,46.36
2022-08-03T23:29:32.753Z,46.33
2022-08-03T23:32:02.774Z,47.16
2022-08-03T23:34:49.937Z,47.09
2022-08-03T23:37:20.004Z,47.19
2022-08-03T23:39:50.952Z,47.08
2022-08-03T23:42:21.005Z,47.06
2022-08-03T23:44:55.496Z,46.93
2022-08-03T23:47:24.677Z,47.61
2022-08-03T23:50:12.880Z,47.45
2022-08-03T23:52:46.787Z,47.25
2022-08-03T23:55:19.748Z,48.04
2022-08-03T23:58:03.108Z,48.70
